sensor_id;sensor_type;location;lat;lon;timestamp;P1;durP1;ratioP1;P2;durP2;ratioP2
16416;SDS011;8317;52.186;5.688;2023-07-31T00:01:22;1.48;;;1.30;;
16416;SDS011;8317;52.186;5.688;2023-07-31T00:03:49;1.55;;;1.30;;
16416;SDS011;8317;52.186;5.688;2023-07-31T00:06:16;2.22;;;1.60;;
16416;SDS011;8317;52.186;5.688;2023-07-31T00:08:42;1.75;;;1.65;;
16416;SDS011;8317;52.186;5.688;2023-07-31T00:11:09;1.98;;;1.48;;
16416;SDS011;8317;52.186;5.688;2023-07-31T00:13:37;1.80;;;1.48;;
16416;SDS011;8317;52.186;5.688;2023-07-31T00:16:04;1.67;;;1.40;;
16416;SDS011;8317;52.186;5.688;2023-07-31T00:18:31;2.70;;;1.77;;
16416;SDS011;8317;52.186;5.688;2023-07-31T00:20:58;2.10;;;1.55;;
16416;SDS011;8317;52.186;5.688;2023-07-31T00:23:25;2.75;;;1.75;;
16416;SDS011;8317;52.186;5.688;2023-07-31T00:25:52;2.20;;;1.65;;
16416;SDS011;8317;52.186;5.688;2023-07-31T00:28:19;2.03;;;1.65;;
16416;SDS011;8317;52.186;5.688;2023-07-31T00:30:47;2.33;;;1.70;;
16416;SDS011;8317;52.186;5.688;2023-07-31T00:33:14;3.22;;;1.60;;
16416;SDS011;8317;52.186;5.688;2023-07-31T00:35:41;1.98;;;1.60;;
16416;SDS011;8317;52.186;5.688;2023-07-31T00:38:07;1.95;;;1.63;;
16416;SDS011;8317;52.186;5.688;2023-07-31T00:40:35;1.33;;;1.20;;
16416;SDS011;8317;52.186;5.688;2023-07-31T00:43:02;2.17;;;1.48;;
16416;SDS011;8317;52.186;5.688;2023-07-31T00:45:29;1.50;;;1.40;;
16416;SDS011;8317;52.186;5.688;2023-07-31T00:47:58;4.13;;;2.05;;
16416;SDS011;8317;52.186;5.688;2023-07-31T00:50:25;1.17;;;1.08;;
16416;SDS011;8317;52.186;5.688;2023-07-31T00:52:54;2.95;;;2.03;;
16416;SDS011;8317;52.186;5.688;2023-07-31T00:55:21;1.42;;;1.20;;
16416;SDS011;8317;52.186;5.688;2023-07-31T00:57:48;2.13;;;1.77;;
16416;SDS011;8317;52.186;5.688;2023-07-31T01:00:16;2.88;;;2.35;;
16416;SDS011;8317;52.186;5.688;2023-07-31T01:02:43;3.90;;;2.28;;
16416;SDS011;8317;52.186;5.688;2023-07-31T01:05:12;2.30;;;2.10;;
16416;SDS011;8317;52.186;5.688;2023-07-31T01:07:40;3.85;;;2.80;;
16416;SDS011;8317;52.186;5.688;2023-07-31T01:10:14;5.88;;;2.92;;
16416;SDS011;8317;52.186;5.688;2023-07-31T01:12:46;8.55;;;3.72;;
16416;SDS011;8317;52.186;5.688;2023-07-31T01:15:14;5.22;;;3.47;;
16416;SDS011;8317;52.186;5.688;2023-07-31T01:17:42;11.10;;;4.30;;
16416;SDS011;8317;52.186;5.688;2023-07-31T01:20:12;6.85;;;3.70;;
16416;SDS011;8317;52.186;5.688;2023-07-31T01:22:54;10.05;;;3.33;;
16416;SDS011;8317;52.186;5.688;2023-07-31T01:25:59;12.98;;;4.25;;
16416;SDS011;8317;52.186;5.688;2023-07-31T01:28:32;8.57;;;3.50;;
16416;SDS011;8317;52.186;5.688;2023-07-31T01:31:06;9.65;;;4.53;;
16416;SDS011;8317;52.186;5.688;2023-07-31T01:33:36;10.13;;;3.70;;
16416;SDS011;8317;52.186;5.688;2023-07-31T01:36:04;7.38;;;2.92;;
16416;SDS011;8317;52.186;5.688;2023-07-31T01:38:31;10.15;;;2.78;;
16416;SDS011;8317;52.186;5.688;2023-07-31T01:41:00;4.10;;;2.42;;
16416;SDS011;8317;52.186;5.688;2023-07-31T01:43:27;4.20;;;2.22;;
16416;SDS011;8317;52.186;5.688;2023-07-31T01:45:53;6.25;;;1.92;;
16416;SDS011;8317;52.186;5.688;2023-07-31T01:48:20;6.05;;;2.05;;
16416;SDS011;8317;52.186;5.688;2023-07-31T01:50:47;6.10;;;2.85;;
16416;SDS011;8317;52.186;5.688;2023-07-31T01:53:14;7.53;;;2.88;;
16416;SDS011;8317;52.186;5.688;2023-07-31T01:55:41;8.48;;;2.70;;
16416;SDS011;8317;52.186;5.688;2023-07-31T01:58:09;7.68;;;2.25;;
16416;SDS011;8317;52.186;5.688;2023-07-31T02:00:36;5.80;;;2.10;;
16416;SDS011;8317;52.186;5.688;2023-07-31T02:03:03;4.50;;;2.42;;
16416;SDS011;8317;52.186;5.688;2023-07-31T02:05:30;6.55;;;1.77;;
16416;SDS011;8317;52.186;5.688;2023-07-31T02:07:57;4.72;;;1.92;;
16416;SDS011;8317;52.186;5.688;2023-07-31T02:10:24;6.32;;;1.67;;
16416;SDS011;8317;52.186;5.688;2023-07-31T02:12:50;5.30;;;1.85;;
16416;SDS011;8317;52.186;5.688;2023-07-31T02:15:19;2.63;;;1.58;;
16416;SDS011;8317;52.186;5.688;2023-07-31T02:17:46;2.25;;;1.55;;
16416;SDS011;8317;52.186;5.688;2023-07-31T02:20:13;3.58;;;1.80;;
16416;SDS011;8317;52.186;5.688;2023-07-31T02:22:40;3.17;;;1.88;;
16416;SDS011;8317;52.186;5.688;2023-07-31T02:25:07;5.93;;;2.83;;
16416;SDS011;8317;52.186;5.688;2023-07-31T02:27:34;7.10;;;3.17;;
16416;SDS011;8317;52.186;5.688;2023-07-31T02:30:01;10.40;;;3.30;;
16416;SDS011;8317;52.186;5.688;2023-07-31T02:32:30;15.45;;;3.67;;
16416;SDS011;8317;52.186;5.688;2023-07-31T02:34:57;7.78;;;3.50;;
16416;SDS011;8317;52.186;5.688;2023-07-31T02:37:23;13.25;;;3.60;;
16416;SDS011;8317;52.186;5.688;2023-07-31T02:39:51;16.98;;;3.40;;
16416;SDS011;8317;52.186;5.688;2023-07-31T02:42:18;11.15;;;3.60;;
16416;SDS011;8317;52.186;5.688;2023-07-31T02:44:44;9.48;;;3.63;;
16416;SDS011;8317;52.186;5.688;2023-07-31T02:47:11;15.98;;;5.45;;
16416;SDS011;8317;52.186;5.688;2023-07-31T02:49:40;11.95;;;4.60;;
16416;SDS011;8317;52.186;5.688;2023-07-31T02:52:06;15.38;;;5.00;;
16416;SDS011;8317;52.186;5.688;2023-07-31T02:54:33;16.75;;;5.18;;
16416;SDS011;8317;52.186;5.688;2023-07-31T02:57:00;19.52;;;3.95;;
16416;SDS011;8317;52.186;5.688;2023-07-31T02:59:27;9.23;;;3.67;;
16416;SDS011;8317;52.186;5.688;2023-07-31T03:01:54;20.20;;;5.30;;
16416;SDS011;8317;52.186;5.688;2023-07-31T03:04:21;15.38;;;4.50;;
16416;SDS011;8317;52.186;5.688;2023-07-31T03:06:50;30.88;;;5.40;;
16416;SDS011;8317;52.186;5.688;2023-07-31T03:09:16;11.93;;;4.18;;
16416;SDS011;8317;52.186;5.688;2023-07-31T03:11:43;8.95;;;3.97;;
16416;SDS011;8317;52.186;5.688;2023-07-31T03:14:10;15.98;;;4.68;;
16416;SDS011;8317;52.186;5.688;2023-07-31T03:16:37;12.10;;;4.75;;
16416;SDS011;8317;52.186;5.688;2023-07-31T03:19:04;13.38;;;5.18;;
16416;SDS011;8317;52.186;5.688;2023-07-31T03:21:31;22.45;;;4.43;;
16416;SDS011;8317;52.186;5.688;2023-07-31T03:23:59;12.15;;;4.65;;
16416;SDS011;8317;52.186;5.688;2023-07-31T03:26:26;11.05;;;4.05;;
16416;SDS011;8317;52.186;5.688;2023-07-31T03:28:53;22.27;;;5.22;;
16416;SDS011;8317;52.186;5.688;2023-07-31T03:31:19;13.80;;;4.97;;
16416;SDS011;8317;52.186;5.688;2023-07-31T03:33:46;11.57;;;4.78;;
16416;SDS011;8317;52.186;5.688;2023-07-31T03:36:13;15.60;;;4.93;;
16416;SDS011;8317;52.186;5.688;2023-07-31T03:38:40;17.60;;;4.70;;
16416;SDS011;8317;52.186;5.688;2023-07-31T03:41:08;30.60;;;6.25;;
16416;SDS011;8317;52.186;5.688;2023-07-31T03:43:35;16.63;;;5.53;;
16416;SDS011;8317;52.186;5.688;2023-07-31T03:46:02;19.30;;;5.40;;
16416;SDS011;8317;52.186;5.688;2023-07-31T03:48:29;11.57;;;3.75;;
16416;SDS011;8317;52.186;5.688;2023-07-31T03:50:56;14.52;;;4.88;;
16416;SDS011;8317;52.186;5.688;2023-07-31T03:53:23;22.88;;;4.75;;
16416;SDS011;8317;52.186;5.688;2023-07-31T03:55:50;21.77;;;5.43;;
16416;SDS011;8317;52.186;5.688;2023-07-31T03:58:18;23.73;;;5.97;;
16416;SDS011;8317;52.186;5.688;2023-07-31T04:00:45;16.35;;;5.32;;
16416;SDS011;8317;52.186;5.688;2023-07-31T04:03:13;22.90;;;6.60;;
16416;SDS011;8317;52.186;5.688;2023-07-31T04:05:40;17.10;;;5.60;;
16416;SDS011;8317;52.186;5.688;2023-07-31T04:08:07;16.98;;;4.93;;
16416;SDS011;8317;52.186;5.688;2023-07-31T04:10:33;15.38;;;4.50;;
16416;SDS011;8317;52.186;5.688;2023-07-31T04:13:00;15.07;;;4.90;;
16416;SDS011;8317;52.186;5.688;2023-07-31T04:15:29;19.05;;;4.88;;
16416;SDS011;8317;52.186;5.688;2023-07-31T04:17:55;11.35;;;5.95;;
16416;SDS011;8317;52.186;5.688;2023-07-31T04:20:22;18.83;;;5.45;;
16416;SDS011;8317;52.186;5.688;2023-07-31T04:22:49;16.00;;;3.88;;
16416;SDS011;8317;52.186;5.688;2023-07-31T04:25:16;12.05;;;4.35;;
16416;SDS011;8317;52.186;5.688;2023-07-31T04:27:43;15.63;;;4.38;;
16416;SDS011;8317;52.186;5.688;2023-07-31T04:30:10;9.32;;;4.45;;
16416;SDS011;8317;52.186;5.688;2023-07-31T04:32:38;14.18;;;4.80;;
16416;SDS011;8317;52.186;5.688;2023-07-31T04:35:05;8.70;;;4.85;;
16416;SDS011;8317;52.186;5.688;2023-07-31T04:37:33;25.13;;;5.25;;
16416;SDS011;8317;52.186;5.688;2023-07-31T04:39:59;19.90;;;5.18;;
16416;SDS011;8317;52.186;5.688;2023-07-31T04:42:26;31.40;;;5.35;;
16416;SDS011;8317;52.186;5.688;2023-07-31T04:44:53;19.00;;;5.55;;
16416;SDS011;8317;52.186;5.688;2023-07-31T04:47:20;19.50;;;5.47;;
16416;SDS011;8317;52.186;5.688;2023-07-31T04:49:48;15.60;;;5.53;;
16416;SDS011;8317;52.186;5.688;2023-07-31T04:52:15;15.90;;;5.38;;
16416;SDS011;8317;52.186;5.688;2023-07-31T04:54:42;10.80;;;4.35;;
16416;SDS011;8317;52.186;5.688;2023-07-31T04:57:09;15.65;;;4.80;;
16416;SDS011;8317;52.186;5.688;2023-07-31T04:59:36;17.48;;;4.18;;
16416;SDS011;8317;52.186;5.688;2023-07-31T05:02:03;15.93;;;5.47;;
16416;SDS011;8317;52.186;5.688;2023-07-31T05:04:30;13.98;;;4.25;;
16416;SDS011;8317;52.186;5.688;2023-07-31T05:06:58;17.58;;;4.63;;
16416;SDS011;8317;52.186;5.688;2023-07-31T05:09:25;20.60;;;5.03;;
16416;SDS011;8317;52.186;5.688;2023-07-31T05:11:52;32.42;;;5.05;;
16416;SDS011;8317;52.186;5.688;2023-07-31T05:14:19;21.50;;;5.20;;
16416;SDS011;8317;52.186;5.688;2023-07-31T05:16:46;9.48;;;4.50;;
16416;SDS011;8317;52.186;5.688;2023-07-31T05:19:13;17.00;;;4.70;;
16416;SDS011;8317;52.186;5.688;2023-07-31T05:21:40;12.18;;;3.60;;
16416;SDS011;8317;52.186;5.688;2023-07-31T05:24:08;18.55;;;5.00;;
16416;SDS011;8317;52.186;5.688;2023-07-31T05:26:36;8.68;;;4.75;;
16416;SDS011;8317;52.186;5.688;2023-07-31T05:29:03;13.70;;;4.10;;
16416;SDS011;8317;52.186;5.688;2023-07-31T05:31:29;16.52;;;4.70;;
16416;SDS011;8317;52.186;5.688;2023-07-31T05:33:57;13.68;;;4.80;;
16416;SDS011;8317;52.186;5.688;2023-07-31T05:36:24;10.82;;;4.35;;
16416;SDS011;8317;52.186;5.688;2023-07-31T05:38:51;9.25;;;3.35;;
16416;SDS011;8317;52.186;5.688;2023-07-31T05:41:19;12.95;;;3.90;;
16416;SDS011;8317;52.186;5.688;2023-07-31T05:43:46;12.93;;;4.93;;
16416;SDS011;8317;52.186;5.688;2023-07-31T05:46:13;11.50;;;4.18;;
16416;SDS011;8317;52.186;5.688;2023-07-31T05:48:40;13.05;;;3.55;;
16416;SDS011;8317;52.186;5.688;2023-07-31T05:51:07;11.27;;;4.82;;
16416;SDS011;8317;52.186;5.688;2023-07-31T05:53:33;7.63;;;3.85;;
16416;SDS011;8317;52.186;5.688;2023-07-31T05:56:03;11.43;;;3.00;;
16416;SDS011;8317;52.186;5.688;2023-07-31T05:58:31;8.50;;;3.35;;
16416;SDS011;8317;52.186;5.688;2023-07-31T06:00:58;9.00;;;3.65;;
16416;SDS011;8317;52.186;5.688;2023-07-31T06:03:25;6.88;;;3.92;;
16416;SDS011;8317;52.186;5.688;2023-07-31T06:05:52;7.88;;;3.50;;
16416;SDS011;8317;52.186;5.688;2023-07-31T06:08:19;5.63;;;3.08;;
16416;SDS011;8317;52.186;5.688;2023-07-31T06:10:46;10.32;;;2.95;;
16416;SDS011;8317;52.186;5.688;2023-07-31T06:13:13;6.43;;;3.50;;
16416;SDS011;8317;52.186;5.688;2023-07-31T06:15:41;11.15;;;3.80;;
16416;SDS011;8317;52.186;5.688;2023-07-31T06:18:08;5.30;;;3.58;;
16416;SDS011;8317;52.186;5.688;2023-07-31T06:20:35;10.50;;;4.43;;
16416;SDS011;8317;52.186;5.688;2023-07-31T06:23:02;8.63;;;3.78;;
16416;SDS011;8317;52.186;5.688;2023-07-31T06:25:29;7.55;;;3.42;;
16416;SDS011;8317;52.186;5.688;2023-07-31T06:27:56;7.15;;;4.13;;
16416;SDS011;8317;52.186;5.688;2023-07-31T06:30:23;6.28;;;3.17;;
16416;SDS011;8317;52.186;5.688;2023-07-31T06:32:51;10.77;;;4.68;;
16416;SDS011;8317;52.186;5.688;2023-07-31T06:35:18;7.70;;;3.83;;
16416;SDS011;8317;52.186;5.688;2023-07-31T06:37:45;7.78;;;3.22;;
16416;SDS011;8317;52.186;5.688;2023-07-31T06:40:12;8.45;;;4.20;;
16416;SDS011;8317;52.186;5.688;2023-07-31T06:42:39;9.48;;;3.72;;
16416;SDS011;8317;52.186;5.688;2023-07-31T06:45:06;7.18;;;4.03;;
16416;SDS011;8317;52.186;5.688;2023-07-31T06:47:34;7.25;;;3.50;;
16416;SDS011;8317;52.186;5.688;2023-07-31T06:50:02;6.72;;;3.10;;
16416;SDS011;8317;52.186;5.688;2023-07-31T06:52:30;3.90;;;2.70;;
16416;SDS011;8317;52.186;5.688;2023-07-31T06:55:00;5.07;;;3.28;;
16416;SDS011;8317;52.186;5.688;2023-07-31T06:57:28;6.63;;;3.20;;
16416;SDS011;8317;52.186;5.688;2023-07-31T06:59:55;7.88;;;3.53;;
16416;SDS011;8317;52.186;5.688;2023-07-31T07:02:22;5.53;;;2.95;;
16416;SDS011;8317;52.186;5.688;2023-07-31T07:04:49;5.70;;;3.20;;
16416;SDS011;8317;52.186;5.688;2023-07-31T07:07:18;3.90;;;2.60;;
16416;SDS011;8317;52.186;5.688;2023-07-31T07:09:45;4.25;;;2.72;;
16416;SDS011;8317;52.186;5.688;2023-07-31T07:12:12;4.22;;;2.38;;
16416;SDS011;8317;52.186;5.688;2023-07-31T07:14:39;6.50;;;3.13;;
16416;SDS011;8317;52.186;5.688;2023-07-31T07:17:06;5.97;;;2.95;;
16416;SDS011;8317;52.186;5.688;2023-07-31T07:19:33;6.60;;;2.92;;
16416;SDS011;8317;52.186;5.688;2023-07-31T07:22:00;7.10;;;2.95;;
16416;SDS011;8317;52.186;5.688;2023-07-31T07:24:28;4.22;;;2.67;;
16416;SDS011;8317;52.186;5.688;2023-07-31T07:26:55;6.10;;;2.42;;
16416;SDS011;8317;52.186;5.688;2023-07-31T07:29:22;6.80;;;2.47;;
16416;SDS011;8317;52.186;5.688;2023-07-31T07:31:49;5.22;;;3.13;;
16416;SDS011;8317;52.186;5.688;2023-07-31T07:34:16;4.65;;;2.70;;
16416;SDS011;8317;52.186;5.688;2023-07-31T07:36:43;7.22;;;3.58;;
16416;SDS011;8317;52.186;5.688;2023-07-31T07:39:10;4.25;;;2.70;;
16416;SDS011;8317;52.186;5.688;2023-07-31T07:41:38;5.97;;;2.88;;
16416;SDS011;8317;52.186;5.688;2023-07-31T07:44:05;5.18;;;2.78;;
16416;SDS011;8317;52.186;5.688;2023-07-31T07:46:32;4.22;;;2.70;;
16416;SDS011;8317;52.186;5.688;2023-07-31T07:48:59;6.88;;;3.83;;
16416;SDS011;8317;52.186;5.688;2023-07-31T07:51:26;5.43;;;3.08;;
16416;SDS011;8317;52.186;5.688;2023-07-31T07:53:55;3.40;;;2.78;;
16416;SDS011;8317;52.186;5.688;2023-07-31T07:56:22;4.22;;;2.88;;
16416;SDS011;8317;52.186;5.688;2023-07-31T07:58:51;6.63;;;2.88;;
16416;SDS011;8317;52.186;5.688;2023-07-31T08:01:18;4.00;;;3.60;;
16416;SDS011;8317;52.186;5.688;2023-07-31T08:03:45;4.60;;;3.17;;
16416;SDS011;8317;52.186;5.688;2023-07-31T08:06:12;3.75;;;2.53;;
16416;SDS011;8317;52.186;5.688;2023-07-31T08:08:40;5.25;;;2.85;;
16416;SDS011;8317;52.186;5.688;2023-07-31T08:11:07;4.88;;;2.90;;
16416;SDS011;8317;52.186;5.688;2023-07-31T08:13:34;3.67;;;2.40;;
16416;SDS011;8317;52.186;5.688;2023-07-31T08:16:03;3.67;;;2.67;;
16416;SDS011;8317;52.186;5.688;2023-07-31T08:18:30;3.38;;;2.90;;
16416;SDS011;8317;52.186;5.688;2023-07-31T08:20:57;3.63;;;2.53;;
16416;SDS011;8317;52.186;5.688;2023-07-31T08:23:24;8.27;;;2.83;;
16416;SDS011;8317;52.186;5.688;2023-07-31T08:25:51;4.13;;;2.97;;
16416;SDS011;8317;52.186;5.688;2023-07-31T08:28:18;6.13;;;3.40;;
16416;SDS011;8317;52.186;5.688;2023-07-31T08:30:45;4.80;;;3.03;;
16416;SDS011;8317;52.186;5.688;2023-07-31T08:33:13;5.32;;;2.95;;
16416;SDS011;8317;52.186;5.688;2023-07-31T08:35:40;5.82;;;4.07;;
16416;SDS011;8317;52.186;5.688;2023-07-31T08:38:07;4.15;;;3.22;;
16416;SDS011;8317;52.186;5.688;2023-07-31T08:40:35;3.90;;;3.03;;
16416;SDS011;8317;52.186;5.688;2023-07-31T08:43:03;3.63;;;3.22;;
16416;SDS011;8317;52.186;5.688;2023-07-31T08:45:30;7.43;;;3.20;;
16416;SDS011;8317;52.186;5.688;2023-07-31T08:47:58;4.20;;;3.08;;
16416;SDS011;8317;52.186;5.688;2023-07-31T08:50:26;5.43;;;2.80;;
16416;SDS011;8317;52.186;5.688;2023-07-31T08:52:53;3.97;;;3.60;;
16416;SDS011;8317;52.186;5.688;2023-07-31T08:55:20;5.60;;;3.42;;
16416;SDS011;8317;52.186;5.688;2023-07-31T08:57:48;4.55;;;3.55;;
16416;SDS011;8317;52.186;5.688;2023-07-31T09:00:19;4.63;;;3.47;;
16416;SDS011;8317;52.186;5.688;2023-07-31T09:02:51;7.18;;;3.38;;
16416;SDS011;8317;52.186;5.688;2023-07-31T09:05:22;3.42;;;2.90;;
16416;SDS011;8317;52.186;5.688;2023-07-31T09:07:51;3.60;;;2.90;;
16416;SDS011;8317;52.186;5.688;2023-07-31T09:10:18;3.05;;;2.75;;
16416;SDS011;8317;52.186;5.688;2023-07-31T09:12:44;3.45;;;3.13;;
16416;SDS011;8317;52.186;5.688;2023-07-31T09:15:12;3.83;;;2.90;;
16416;SDS011;8317;52.186;5.688;2023-07-31T09:17:40;3.90;;;2.92;;
16416;SDS011;8317;52.186;5.688;2023-07-31T09:20:13;5.78;;;2.97;;
16416;SDS011;8317;52.186;5.688;2023-07-31T09:22:41;4.15;;;3.25;;
16416;SDS011;8317;52.186;5.688;2023-07-31T09:25:17;5.07;;;3.58;;
16416;SDS011;8317;52.186;5.688;2023-07-31T09:27:48;3.10;;;2.55;;
16416;SDS011;8317;52.186;5.688;2023-07-31T09:30:16;3.38;;;2.75;;
16416;SDS011;8317;52.186;5.688;2023-07-31T09:32:44;4.45;;;3.17;;
16416;SDS011;8317;52.186;5.688;2023-07-31T09:35:13;4.68;;;3.42;;
16416;SDS011;8317;52.186;5.688;2023-07-31T09:37:47;5.68;;;3.05;;
16416;SDS011;8317;52.186;5.688;2023-07-31T09:40:27;3.28;;;2.97;;
16416;SDS011;8317;52.186;5.688;2023-07-31T09:42:59;3.25;;;2.95;;
16416;SDS011;8317;52.186;5.688;2023-07-31T09:45:27;3.50;;;2.42;;
16416;SDS011;8317;52.186;5.688;2023-07-31T09:47:54;4.23;;;3.27;;
16416;SDS011;8317;52.186;5.688;2023-07-31T09:50:22;3.92;;;2.90;;
16416;SDS011;8317;52.186;5.688;2023-07-31T09:52:50;4.00;;;3.10;;
16416;SDS011;8317;52.186;5.688;2023-07-31T09:55:17;5.45;;;2.97;;
16416;SDS011;8317;52.186;5.688;2023-07-31T09:57:47;2.97;;;2.67;;
16416;SDS011;8317;52.186;5.688;2023-07-31T10:00:15;5.13;;;3.05;;
16416;SDS011;8317;52.186;5.688;2023-07-31T10:02:44;3.58;;;3.10;;
16416;SDS011;8317;52.186;5.688;2023-07-31T10:05:13;3.83;;;3.15;;
16416;SDS011;8317;52.186;5.688;2023-07-31T10:07:42;6.97;;;4.03;;
16416;SDS011;8317;52.186;5.688;2023-07-31T10:10:11;4.18;;;3.75;;
16416;SDS011;8317;52.186;5.688;2023-07-31T10:12:40;3.58;;;3.20;;
16416;SDS011;8317;52.186;5.688;2023-07-31T10:15:09;3.72;;;3.22;;
16416;SDS011;8317;52.186;5.688;2023-07-31T10:17:37;5.95;;;3.40;;
16416;SDS011;8317;52.186;5.688;2023-07-31T10:20:04;5.85;;;3.55;;
16416;SDS011;8317;52.186;5.688;2023-07-31T10:22:33;7.68;;;3.85;;
16416;SDS011;8317;52.186;5.688;2023-07-31T10:25:00;4.78;;;3.45;;
16416;SDS011;8317;52.186;5.688;2023-07-31T10:27:28;4.45;;;3.08;;
16416;SDS011;8317;52.186;5.688;2023-07-31T10:29:55;3.28;;;2.78;;
16416;SDS011;8317;52.186;5.688;2023-07-31T10:32:25;5.90;;;3.78;;
16416;SDS011;8317;52.186;5.688;2023-07-31T10:34:53;7.82;;;3.60;;
16416;SDS011;8317;52.186;5.688;2023-07-31T10:37:22;8.30;;;4.28;;
16416;SDS011;8317;52.186;5.688;2023-07-31T10:39:57;7.00;;;4.15;;
16416;SDS011;8317;52.186;5.688;2023-07-31T10:42:31;5.22;;;4.30;;
16416;SDS011;8317;52.186;5.688;2023-07-31T10:45:00;5.22;;;3.50;;
16416;SDS011;8317;52.186;5.688;2023-07-31T10:47:31;8.18;;;5.05;;
16416;SDS011;8317;52.186;5.688;2023-07-31T10:50:12;7.55;;;4.28;;
16416;SDS011;8317;52.186;5.688;2023-07-31T10:52:40;7.03;;;4.70;;
16416;SDS011;8317;52.186;5.688;2023-07-31T10:55:13;6.85;;;4.55;;
16416;SDS011;8317;52.186;5.688;2023-07-31T10:57:54;10.13;;;4.60;;
16416;SDS011;8317;52.186;5.688;2023-07-31T11:00:22;6.88;;;4.70;;
16416;SDS011;8317;52.186;5.688;2023-07-31T11:03:03;6.88;;;5.30;;
16416;SDS011;8317;52.186;5.688;2023-07-31T11:05:41;5.35;;;4.25;;
16416;SDS011;8317;52.186;5.688;2023-07-31T11:08:17;7.32;;;3.85;;
16416;SDS011;8317;52.186;5.688;2023-07-31T11:10:46;9.02;;;5.00;;
16416;SDS011;8317;52.186;5.688;2023-07-31T11:13:14;6.75;;;4.55;;
16416;SDS011;8317;52.186;5.688;2023-07-31T11:15:41;7.15;;;4.20;;
16416;SDS011;8317;52.186;5.688;2023-07-31T11:18:09;5.85;;;4.55;;
16416;SDS011;8317;52.186;5.688;2023-07-31T11:20:37;7.20;;;4.30;;
16416;SDS011;8317;52.186;5.688;2023-07-31T11:23:06;5.72;;;4.50;;
16416;SDS011;8317;52.186;5.688;2023-07-31T11:25:34;4.32;;;3.30;;
16416;SDS011;8317;52.186;5.688;2023-07-31T11:28:03;5.60;;;3.83;;
16416;SDS011;8317;52.186;5.688;2023-07-31T11:30:31;5.53;;;3.70;;
16416;SDS011;8317;52.186;5.688;2023-07-31T11:32:59;5.55;;;3.75;;
16416;SDS011;8317;52.186;5.688;2023-07-31T11:35:29;5.45;;;4.03;;
16416;SDS011;8317;52.186;5.688;2023-07-31T11:37:57;4.40;;;3.40;;
16416;SDS011;8317;52.186;5.688;2023-07-31T11:40:24;4.00;;;3.30;;
16416;SDS011;8317;52.186;5.688;2023-07-31T11:42:54;2.95;;;2.55;;
16416;SDS011;8317;52.186;5.688;2023-07-31T11:45:23;4.43;;;2.88;;
16416;SDS011;8317;52.186;5.688;2023-07-31T11:47:53;3.17;;;2.75;;
16416;SDS011;8317;52.186;5.688;2023-07-31T11:50:21;2.97;;;2.60;;
16416;SDS011;8317;52.186;5.688;2023-07-31T11:52:52;3.67;;;2.33;;
16416;SDS011;8317;52.186;5.688;2023-07-31T11:55:23;4.57;;;2.63;;
16416;SDS011;8317;52.186;5.688;2023-07-31T11:57:51;3.33;;;2.33;;
16416;SDS011;8317;52.186;5.688;2023-07-31T12:00:20;3.30;;;2.30;;
16416;SDS011;8317;52.186;5.688;2023-07-31T12:02:48;2.58;;;2.33;;
16416;SDS011;8317;52.186;5.688;2023-07-31T12:05:16;2.95;;;2.53;;
16416;SDS011;8317;52.186;5.688;2023-07-31T12:07:47;3.50;;;2.47;;
16416;SDS011;8317;52.186;5.688;2023-07-31T12:10:29;5.25;;;2.67;;
16416;SDS011;8317;52.186;5.688;2023-07-31T12:12:58;6.57;;;3.47;;
16416;SDS011;8317;52.186;5.688;2023-07-31T12:18:12;5.30;;;3.40;;
16416;SDS011;8317;52.186;5.688;2023-07-31T12:20:41;5.13;;;3.13;;
16416;SDS011;8317;52.186;5.688;2023-07-31T12:23:12;5.13;;;4.15;;
16416;SDS011;8317;52.186;5.688;2023-07-31T12:25:45;11.57;;;4.15;;
16416;SDS011;8317;52.186;5.688;2023-07-31T12:28:11;8.80;;;4.13;;
16416;SDS011;8317;52.186;5.688;2023-07-31T12:30:39;7.57;;;4.15;;
16416;SDS011;8317;52.186;5.688;2023-07-31T12:33:10;6.88;;;4.00;;
16416;SDS011;8317;52.186;5.688;2023-07-31T12:35:43;5.88;;;4.13;;
16416;SDS011;8317;52.186;5.688;2023-07-31T12:38:11;4.15;;;3.50;;
16416;SDS011;8317;52.186;5.688;2023-07-31T12:40:39;4.75;;;3.40;;
16416;SDS011;8317;52.186;5.688;2023-07-31T12:43:08;6.32;;;3.22;;
16416;SDS011;8317;52.186;5.688;2023-07-31T12:45:35;4.32;;;3.00;;
16416;SDS011;8317;52.186;5.688;2023-07-31T12:48:02;3.75;;;2.90;;
16416;SDS011;8317;52.186;5.688;2023-07-31T12:50:29;5.88;;;2.83;;
16416;SDS011;8317;52.186;5.688;2023-07-31T12:52:56;5.03;;;2.83;;
16416;SDS011;8317;52.186;5.688;2023-07-31T12:55:23;3.53;;;3.22;;
16416;SDS011;8317;52.186;5.688;2023-07-31T12:57:51;3.50;;;2.70;;
16416;SDS011;8317;52.186;5.688;2023-07-31T13:00:19;3.50;;;2.88;;
16416;SDS011;8317;52.186;5.688;2023-07-31T13:02:46;4.70;;;2.90;;
16416;SDS011;8317;52.186;5.688;2023-07-31T13:05:13;3.83;;;3.25;;
16416;SDS011;8317;52.186;5.688;2023-07-31T13:07:40;3.60;;;3.10;;
16416;SDS011;8317;52.186;5.688;2023-07-31T13:10:08;3.75;;;3.13;;
16416;SDS011;8317;52.186;5.688;2023-07-31T13:12:35;6.03;;;4.35;;
16416;SDS011;8317;52.186;5.688;2023-07-31T13:15:02;5.15;;;3.65;;
16416;SDS011;8317;52.186;5.688;2023-07-31T13:17:31;5.28;;;3.95;;
16416;SDS011;8317;52.186;5.688;2023-07-31T13:19:58;4.47;;;3.50;;
16416;SDS011;8317;52.186;5.688;2023-07-31T13:22:25;5.78;;;4.18;;
16416;SDS011;8317;52.186;5.688;2023-07-31T13:24:52;4.95;;;3.85;;
16416;SDS011;8317;52.186;5.688;2023-07-31T13:27:19;6.07;;;3.65;;
16416;SDS011;8317;52.186;5.688;2023-07-31T13:29:47;6.18;;;3.85;;
16416;SDS011;8317;52.186;5.688;2023-07-31T13:32:13;4.15;;;3.75;;
16416;SDS011;8317;52.186;5.688;2023-07-31T13:34:43;6.55;;;3.88;;
16416;SDS011;8317;52.186;5.688;2023-07-31T13:37:10;6.63;;;4.10;;
16416;SDS011;8317;52.186;5.688;2023-07-31T13:39:37;6.32;;;4.95;;
16416;SDS011;8317;52.186;5.688;2023-07-31T13:42:04;5.47;;;4.57;;
16416;SDS011;8317;52.186;5.688;2023-07-31T13:44:33;7.88;;;4.68;;
16416;SDS011;8317;52.186;5.688;2023-07-31T13:47:00;6.72;;;5.15;;
16416;SDS011;8317;52.186;5.688;2023-07-31T13:49:27;6.35;;;4.80;;
16416;SDS011;8317;52.186;5.688;2023-07-31T13:51:55;7.25;;;4.93;;
16416;SDS011;8317;52.186;5.688;2023-07-31T13:54:23;6.05;;;4.13;;
16416;SDS011;8317;52.186;5.688;2023-07-31T13:56:50;7.65;;;5.00;;
16416;SDS011;8317;52.186;5.688;2023-07-31T13:59:18;5.70;;;4.63;;
16416;SDS011;8317;52.186;5.688;2023-07-31T14:01:45;6.97;;;4.72;;
16416;SDS011;8317;52.186;5.688;2023-07-31T14:04:12;5.32;;;4.40;;
16416;SDS011;8317;52.186;5.688;2023-07-31T14:06:39;6.07;;;4.05;;
16416;SDS011;8317;52.186;5.688;2023-07-31T14:09:07;7.93;;;4.80;;
16416;SDS011;8317;52.186;5.688;2023-07-31T14:11:34;7.43;;;4.45;;
16416;SDS011;8317;52.186;5.688;2023-07-31T14:14:01;5.72;;;4.63;;
16416;SDS011;8317;52.186;5.688;2023-07-31T14:16:29;6.22;;;4.50;;
16416;SDS011;8317;52.186;5.688;2023-07-31T14:18:56;8.20;;;4.43;;
16416;SDS011;8317;52.186;5.688;2023-07-31T14:21:24;6.88;;;4.82;;
16416;SDS011;8317;52.186;5.688;2023-07-31T14:23:51;7.35;;;5.28;;
16416;SDS011;8317;52.186;5.688;2023-07-31T14:26:19;6.93;;;4.47;;
16416;SDS011;8317;52.186;5.688;2023-07-31T14:28:46;7.03;;;4.55;;
16416;SDS011;8317;52.186;5.688;2023-07-31T14:31:13;6.90;;;4.60;;
16416;SDS011;8317;52.186;5.688;2023-07-31T14:33:40;6.53;;;4.63;;
16416;SDS011;8317;52.186;5.688;2023-07-31T14:36:07;7.13;;;4.95;;
16416;SDS011;8317;52.186;5.688;2023-07-31T14:38:34;8.10;;;5.53;;
16416;SDS011;8317;52.186;5.688;2023-07-31T14:41:01;8.55;;;5.72;;
16416;SDS011;8317;52.186;5.688;2023-07-31T14:43:29;8.82;;;5.93;;
16416;SDS011;8317;52.186;5.688;2023-07-31T14:45:56;11.40;;;5.47;;
16416;SDS011;8317;52.186;5.688;2023-07-31T14:48:25;10.32;;;6.18;;
16416;SDS011;8317;52.186;5.688;2023-07-31T14:50:52;9.23;;;5.15;;
16416;SDS011;8317;52.186;5.688;2023-07-31T14:53:19;7.68;;;5.13;;
16416;SDS011;8317;52.186;5.688;2023-07-31T14:55:45;12.30;;;5.22;;
16416;SDS011;8317;52.186;5.688;2023-07-31T14:58:12;6.68;;;4.65;;
16416;SDS011;8317;52.186;5.688;2023-07-31T15:00:41;7.03;;;4.70;;
16416;SDS011;8317;52.186;5.688;2023-07-31T15:03:08;6.65;;;4.32;;
16416;SDS011;8317;52.186;5.688;2023-07-31T15:05:35;10.43;;;4.70;;